sensor_id;sensor_type;location;lat;lon;timestamp;P1;durP1;ratioP1;P2;durP2;ratioP2
19163;SDS011;9714;51.208;4.242;2022-09-13T00:01:25;12.07;;;4.82;;
19163;SDS011;9714;51.208;4.242;2022-09-13T00:03:53;14.77;;;5.30;;
19163;SDS011;9714;51.208;4.242;2022-09-13T00:06:21;19.65;;;5.28;;
19163;SDS011;9714;51.208;4.242;2022-09-13T00:08:50;19.75;;;5.43;;
19163;SDS011;9714;51.208;4.242;2022-09-13T00:11:22;14.00;;;4.93;;
19163;SDS011;9714;51.208;4.242;2022-09-13T00:13:54;12.73;;;5.25;;
19163;SDS011;9714;51.208;4.242;2022-09-13T00:16:23;13.43;;;5.72;;
19163;SDS011;9714;51.208;4.242;2022-09-13T00:18:56;16.92;;;5.75;;
19163;SDS011;9714;51.208;4.242;2022-09-13T00:26:30;14.80;;;5.78;;
19163;SDS011;9714;51.208;4.242;2022-09-13T00:28:57;15.55;;;5.10;;
19163;SDS011;9714;51.208;4.242;2022-09-13T00:31:30;11.43;;;5.07;;
19163;SDS011;9714;51.208;4.242;2022-09-13T00:37:01;14.00;;;5.40;;
19163;SDS011;9714;51.208;4.242;2022-09-13T00:39:30;13.38;;;5.65;;
19163;SDS011;9714;51.208;4.242;2022-09-13T00:41:58;11.60;;;5.75;;
19163;SDS011;9714;51.208;4.242;2022-09-13T00:49:59;15.98;;;6.10;;
19163;SDS011;9714;51.208;4.242;2022-09-13T00:52:31;13.35;;;5.75;;
19163;SDS011;9714;51.208;4.242;2022-09-13T00:55:02;18.38;;;6.32;;
19163;SDS011;9714;51.208;4.242;2022-09-13T00:57:33;12.45;;;6.50;;
19163;SDS011;9714;51.208;4.242;2022-09-13T01:00:03;15.20;;;6.50;;
19163;SDS011;9714;51.208;4.242;2022-09-13T01:02:36;14.37;;;6.70;;
19163;SDS011;9714;51.208;4.242;2022-09-13T01:05:05;14.53;;;5.83;;
19163;SDS011;9714;51.208;4.242;2022-09-13T01:07:34;12.67;;;6.23;;
19163;SDS011;9714;51.208;4.242;2022-09-13T01:10:02;15.50;;;6.13;;
19163;SDS011;9714;51.208;4.242;2022-09-13T01:12:33;10.80;;;6.33;;
19163;SDS011;9714;51.208;4.242;2022-09-13T01:15:10;13.52;;;6.30;;
19163;SDS011;9714;51.208;4.242;2022-09-13T01:17:37;12.73;;;5.80;;
19163;SDS011;9714;51.208;4.242;2022-09-13T01:20:07;17.27;;;6.78;;
19163;SDS011;9714;51.208;4.242;2022-09-13T01:32:19;11.47;;;5.83;;
19163;SDS011;9714;51.208;4.242;2022-09-13T01:34:56;11.93;;;6.03;;
19163;SDS011;9714;51.208;4.242;2022-09-13T01:37:37;10.57;;;5.93;;
19163;SDS011;9714;51.208;4.242;2022-09-13T01:40:14;11.50;;;6.38;;
19163;SDS011;9714;51.208;4.242;2022-09-13T01:42:58;11.05;;;6.18;;
19163;SDS011;9714;51.208;4.242;2022-09-13T01:45:41;13.40;;;5.95;;
19163;SDS011;9714;51.208;4.242;2022-09-13T01:48:19;18.87;;;6.23;;
19163;SDS011;9714;51.208;4.242;2022-09-13T01:50:51;14.40;;;6.00;;
19163;SDS011;9714;51.208;4.242;2022-09-13T01:53:28;16.10;;;5.80;;
19163;SDS011;9714;51.208;4.242;2022-09-13T01:56:01;10.15;;;5.72;;
19163;SDS011;9714;51.208;4.242;2022-09-13T01:58:36;11.35;;;5.80;;
19163;SDS011;9714;51.208;4.242;2022-09-13T02:01:08;12.07;;;6.22;;
19163;SDS011;9714;51.208;4.242;2022-09-13T02:03:43;14.23;;;5.95;;
19163;SDS011;9714;51.208;4.242;2022-09-13T02:06:15;12.88;;;5.93;;
19163;SDS011;9714;51.208;4.242;2022-09-13T02:08:45;16.02;;;6.05;;
19163;SDS011;9714;51.208;4.242;2022-09-13T02:11:15;13.73;;;5.97;;
19163;SDS011;9714;51.208;4.242;2022-09-13T02:13:45;13.65;;;6.20;;
19163;SDS011;9714;51.208;4.242;2022-09-13T02:16:17;12.25;;;5.70;;
19163;SDS011;9714;51.208;4.242;2022-09-13T02:18:53;14.45;;;5.78;;
19163;SDS011;9714;51.208;4.242;2022-09-13T02:21:25;12.97;;;5.70;;
19163;SDS011;9714;51.208;4.242;2022-09-13T02:23:57;13.47;;;6.10;;
19163;SDS011;9714;51.208;4.242;2022-09-13T02:26:27;12.70;;;5.63;;
19163;SDS011;9714;51.208;4.242;2022-09-13T02:28:56;13.65;;;5.60;;
19163;SDS011;9714;51.208;4.242;2022-09-13T02:31:27;16.97;;;6.23;;
19163;SDS011;9714;51.208;4.242;2022-09-13T02:33:59;13.40;;;6.35;;
19163;SDS011;9714;51.208;4.242;2022-09-13T02:36:31;13.90;;;6.00;;
19163;SDS011;9714;51.208;4.242;2022-09-13T02:39:02;16.98;;;6.72;;
19163;SDS011;9714;51.208;4.242;2022-09-13T02:41:33;12.63;;;5.33;;
19163;SDS011;9714;51.208;4.242;2022-09-13T02:44:05;13.10;;;5.60;;
19163;SDS011;9714;51.208;4.242;2022-09-13T02:46:46;16.00;;;5.60;;
19163;SDS011;9714;51.208;4.242;2022-09-13T02:49:28;10.73;;;5.57;;
19163;SDS011;9714;51.208;4.242;2022-09-13T02:52:01;13.53;;;6.07;;
19163;SDS011;9714;51.208;4.242;2022-09-13T02:54:35;10.70;;;5.60;;
19163;SDS011;9714;51.208;4.242;2022-09-13T02:57:09;11.80;;;5.47;;
19163;SDS011;9714;51.208;4.242;2022-09-13T02:59:43;10.40;;;5.37;;
19163;SDS011;9714;51.208;4.242;2022-09-13T03:02:18;12.07;;;5.35;;
19163;SDS011;9714;51.208;4.242;2022-09-13T03:04:55;12.70;;;5.80;;
19163;SDS011;9714;51.208;4.242;2022-09-13T03:07:23;17.90;;;5.47;;
19163;SDS011;9714;51.208;4.242;2022-09-13T03:09:51;16.63;;;4.87;;
19163;SDS011;9714;51.208;4.242;2022-09-13T03:12:23;13.33;;;5.27;;
19163;SDS011;9714;51.208;4.242;2022-09-13T03:15:09;12.48;;;4.57;;
19163;SDS011;9714;51.208;4.242;2022-09-13T03:17:45;7.72;;;4.15;;
19163;SDS011;9714;51.208;4.242;2022-09-13T03:20:20;12.93;;;4.60;;
19163;SDS011;9714;51.208;4.242;2022-09-13T03:25:55;11.77;;;4.57;;
19163;SDS011;9714;51.208;4.242;2022-09-13T03:28:33;13.40;;;5.03;;
19163;SDS011;9714;51.208;4.242;2022-09-13T03:31:08;12.60;;;4.50;;
19163;SDS011;9714;51.208;4.242;2022-09-13T03:33:43;13.80;;;5.03;;
19163;SDS011;9714;51.208;4.242;2022-09-13T03:36:15;15.05;;;5.18;;
19163;SDS011;9714;51.208;4.242;2022-09-13T03:38:50;10.65;;;4.50;;
19163;SDS011;9714;51.208;4.242;2022-09-13T03:41:26;10.30;;;4.68;;
19163;SDS011;9714;51.208;4.242;2022-09-13T03:43:58;9.40;;;4.15;;
19163;SDS011;9714;51.208;4.242;2022-09-13T03:46:29;10.88;;;4.53;;
19163;SDS011;9714;51.208;4.242;2022-09-13T03:49:00;11.93;;;4.07;;
19163;SDS011;9714;51.208;4.242;2022-09-13T03:51:31;12.35;;;4.25;;
19163;SDS011;9714;51.208;4.242;2022-09-13T03:54:00;18.52;;;5.15;;
19163;SDS011;9714;51.208;4.242;2022-09-13T03:56:29;12.20;;;4.82;;
19163;SDS011;9714;51.208;4.242;2022-09-13T03:58:56;11.87;;;4.23;;
19163;SDS011;9714;51.208;4.242;2022-09-13T04:01:23;9.03;;;4.00;;
19163;SDS011;9714;51.208;4.242;2022-09-13T04:03:51;9.75;;;4.30;;
19163;SDS011;9714;51.208;4.242;2022-09-13T04:06:18;11.43;;;4.20;;
19163;SDS011;9714;51.208;4.242;2022-09-13T04:08:46;11.23;;;4.90;;
19163;SDS011;9714;51.208;4.242;2022-09-13T04:11:13;11.60;;;4.57;;
19163;SDS011;9714;51.208;4.242;2022-09-13T04:13:40;9.33;;;4.57;;
19163;SDS011;9714;51.208;4.242;2022-09-13T04:16:07;15.87;;;4.73;;
19163;SDS011;9714;51.208;4.242;2022-09-13T04:18:34;11.03;;;3.97;;
19163;SDS011;9714;51.208;4.242;2022-09-13T04:21:02;10.50;;;4.80;;
19163;SDS011;9714;51.208;4.242;2022-09-13T04:23:29;11.23;;;4.10;;
19163;SDS011;9714;51.208;4.242;2022-09-13T04:26:01;9.93;;;3.80;;
19163;SDS011;9714;51.208;4.242;2022-09-13T04:28:28;14.80;;;4.57;;
19163;SDS011;9714;51.208;4.242;2022-09-13T04:30:56;12.60;;;4.60;;
19163;SDS011;9714;51.208;4.242;2022-09-13T04:33:23;16.20;;;4.83;;
19163;SDS011;9714;51.208;4.242;2022-09-13T04:35:53;13.98;;;4.57;;
19163;SDS011;9714;51.208;4.242;2022-09-13T04:38:22;8.70;;;4.30;;
19163;SDS011;9714;51.208;4.242;2022-09-13T04:40:53;14.52;;;4.43;;
19163;SDS011;9714;51.208;4.242;2022-09-13T04:43:22;17.90;;;4.73;;
19163;SDS011;9714;51.208;4.242;2022-09-13T04:45:50;10.53;;;4.13;;
19163;SDS011;9714;51.208;4.242;2022-09-13T04:48:17;11.77;;;4.50;;
19163;SDS011;9714;51.208;4.242;2022-09-13T04:50:44;12.70;;;4.67;;
19163;SDS011;9714;51.208;4.242;2022-09-13T04:53:12;12.10;;;4.17;;
19163;SDS011;9714;51.208;4.242;2022-09-13T04:55:39;15.57;;;4.55;;
19163;SDS011;9714;51.208;4.242;2022-09-13T04:58:06;12.80;;;4.53;;
19163;SDS011;9714;51.208;4.242;2022-09-13T05:00:35;11.33;;;4.87;;
19163;SDS011;9714;51.208;4.242;2022-09-13T05:03:02;12.80;;;5.20;;
19163;SDS011;9714;51.208;4.242;2022-09-13T05:05:29;9.38;;;4.32;;
19163;SDS011;9714;51.208;4.242;2022-09-13T05:07:56;16.02;;;5.20;;
19163;SDS011;9714;51.208;4.242;2022-09-13T05:10:23;15.80;;;5.70;;
19163;SDS011;9714;51.208;4.242;2022-09-13T05:12:51;38.43;;;6.87;;
19163;SDS011;9714;51.208;4.242;2022-09-13T05:15:18;78.63;;;7.20;;
19163;SDS011;9714;51.208;4.242;2022-09-13T05:17:46;77.93;;;7.93;;
19163;SDS011;9714;51.208;4.242;2022-09-13T05:20:13;48.88;;;7.45;;
19163;SDS011;9714;51.208;4.242;2022-09-13T05:22:41;48.50;;;7.17;;
19163;SDS011;9714;51.208;4.242;2022-09-13T05:25:08;52.90;;;6.93;;
19163;SDS011;9714;51.208;4.242;2022-09-13T05:27:35;38.57;;;6.80;;
19163;SDS011;9714;51.208;4.242;2022-09-13T05:30:05;37.63;;;6.00;;
19163;SDS011;9714;51.208;4.242;2022-09-13T05:32:32;36.67;;;6.35;;
19163;SDS011;9714;51.208;4.242;2022-09-13T05:37:31;20.50;;;5.37;;
19163;SDS011;9714;51.208;4.242;2022-09-13T05:40:00;30.08;;;5.88;;
19163;SDS011;9714;51.208;4.242;2022-09-13T05:42:27;32.93;;;5.77;;
19163;SDS011;9714;51.208;4.242;2022-09-13T05:44:54;27.67;;;6.10;;
19163;SDS011;9714;51.208;4.242;2022-09-13T05:47:22;39.77;;;5.73;;
19163;SDS011;9714;51.208;4.242;2022-09-13T05:49:49;29.83;;;5.83;;
19163;SDS011;9714;51.208;4.242;2022-09-13T05:52:18;29.17;;;5.67;;
19163;SDS011;9714;51.208;4.242;2022-09-13T05:54:45;23.13;;;5.90;;
19163;SDS011;9714;51.208;4.242;2022-09-13T05:57:12;14.32;;;4.90;;
19163;SDS011;9714;51.208;4.242;2022-09-13T05:59:39;20.42;;;4.95;;
19163;SDS011;9714;51.208;4.242;2022-09-13T06:02:07;25.85;;;5.45;;
19163;SDS011;9714;51.208;4.242;2022-09-13T06:04:36;31.70;;;6.10;;
19163;SDS011;9714;51.208;4.242;2022-09-13T06:07:03;27.13;;;5.38;;
19163;SDS011;9714;51.208;4.242;2022-09-13T06:09:32;19.95;;;5.03;;
19163;SDS011;9714;51.208;4.242;2022-09-13T06:11:59;24.85;;;5.40;;
19163;SDS011;9714;51.208;4.242;2022-09-13T06:14:26;25.67;;;5.53;;
19163;SDS011;9714;51.208;4.242;2022-09-13T06:16:53;24.73;;;5.88;;
19163;SDS011;9714;51.208;4.242;2022-09-13T06:19:20;26.25;;;5.55;;
19163;SDS011;9714;51.208;4.242;2022-09-13T06:21:47;16.13;;;4.70;;
19163;SDS011;9714;51.208;4.242;2022-09-13T06:24:14;14.82;;;4.38;;
19163;SDS011;9714;51.208;4.242;2022-09-13T06:26:42;28.42;;;5.57;;
19163;SDS011;9714;51.208;4.242;2022-09-13T06:29:09;21.83;;;5.68;;
19163;SDS011;9714;51.208;4.242;2022-09-13T06:31:37;21.40;;;5.90;;
19163;SDS011;9714;51.208;4.242;2022-09-13T06:34:09;24.67;;;6.78;;
19163;SDS011;9714;51.208;4.242;2022-09-13T06:36:36;15.25;;;5.47;;
19163;SDS011;9714;51.208;4.242;2022-09-13T06:39:04;16.70;;;5.20;;
19163;SDS011;9714;51.208;4.242;2022-09-13T06:41:32;22.42;;;5.97;;
19163;SDS011;9714;51.208;4.242;2022-09-13T06:44:01;18.52;;;5.88;;
19163;SDS011;9714;51.208;4.242;2022-09-13T06:46:28;23.63;;;5.72;;
19163;SDS011;9714;51.208;4.242;2022-09-13T06:48:58;29.13;;;6.38;;
19163;SDS011;9714;51.208;4.242;2022-09-13T06:51:26;21.88;;;5.80;;
19163;SDS011;9714;51.208;4.242;2022-09-13T06:53:54;20.55;;;5.60;;
19163;SDS011;9714;51.208;4.242;2022-09-13T06:56:21;23.25;;;5.88;;
19163;SDS011;9714;51.208;4.242;2022-09-13T06:58:50;13.80;;;5.30;;
19163;SDS011;9714;51.208;4.242;2022-09-13T07:01:23;18.23;;;6.15;;
19163;SDS011;9714;51.208;4.242;2022-09-13T07:03:52;18.35;;;6.10;;
19163;SDS011;9714;51.208;4.242;2022-09-13T07:06:20;21.75;;;5.00;;
19163;SDS011;9714;51.208;4.242;2022-09-13T07:08:49;17.13;;;5.93;;
19163;SDS011;9714;51.208;4.242;2022-09-13T07:11:17;20.30;;;5.97;;
19163;SDS011;9714;51.208;4.242;2022-09-13T07:13:46;15.55;;;5.75;;
19163;SDS011;9714;51.208;4.242;2022-09-13T07:16:14;18.83;;;6.40;;
19163;SDS011;9714;51.208;4.242;2022-09-13T07:18:42;16.65;;;5.85;;
19163;SDS011;9714;51.208;4.242;2022-09-13T07:21:10;19.42;;;6.40;;
19163;SDS011;9714;51.208;4.242;2022-09-13T07:23:38;14.60;;;6.85;;
19163;SDS011;9714;51.208;4.242;2022-09-13T07:26:05;20.23;;;6.72;;
19163;SDS011;9714;51.208;4.242;2022-09-13T07:28:34;13.40;;;6.50;;
19163;SDS011;9714;51.208;4.242;2022-09-13T07:31:03;19.50;;;7.22;;
19163;SDS011;9714;51.208;4.242;2022-09-13T07:33:32;17.23;;;7.00;;
19163;SDS011;9714;51.208;4.242;2022-09-13T07:36:01;18.67;;;7.68;;
19163;SDS011;9714;51.208;4.242;2022-09-13T07:38:31;20.83;;;6.63;;
19163;SDS011;9714;51.208;4.242;2022-09-13T07:41:02;16.88;;;7.30;;
19163;SDS011;9714;51.208;4.242;2022-09-13T07:43:33;16.40;;;7.80;;
19163;SDS011;9714;51.208;4.242;2022-09-13T07:46:02;16.33;;;7.75;;
19163;SDS011;9714;51.208;4.242;2022-09-13T07:48:31;17.30;;;8.27;;
19163;SDS011;9714;51.208;4.242;2022-09-13T07:51:02;21.30;;;8.45;;
19163;SDS011;9714;51.208;4.242;2022-09-13T07:53:30;21.40;;;8.40;;
19163;SDS011;9714;51.208;4.242;2022-09-13T07:56:01;17.90;;;8.63;;
19163;SDS011;9714;51.208;4.242;2022-09-13T07:58:28;17.17;;;8.45;;
19163;SDS011;9714;51.208;4.242;2022-09-13T08:00:57;18.13;;;9.23;;
19163;SDS011;9714;51.208;4.242;2022-09-13T08:03:30;23.13;;;9.05;;
19163;SDS011;9714;51.208;4.242;2022-09-13T08:05:57;21.73;;;10.00;;
19163;SDS011;9714;51.208;4.242;2022-09-13T08:08:25;16.02;;;9.02;;
19163;SDS011;9714;51.208;4.242;2022-09-13T08:10:53;18.67;;;9.50;;
19163;SDS011;9714;51.208;4.242;2022-09-13T08:13:21;22.05;;;9.90;;
19163;SDS011;9714;51.208;4.242;2022-09-13T08:15:49;26.52;;;11.60;;
19163;SDS011;9714;51.208;4.242;2022-09-13T08:18:16;21.00;;;11.05;;
19163;SDS011;9714;51.208;4.242;2022-09-13T08:20:43;24.45;;;10.75;;
19163;SDS011;9714;51.208;4.242;2022-09-13T08:23:11;20.98;;;10.25;;
19163;SDS011;9714;51.208;4.242;2022-09-13T08:25:39;19.92;;;11.20;;
19163;SDS011;9714;51.208;4.242;2022-09-13T08:28:09;22.73;;;11.13;;
19163;SDS011;9714;51.208;4.242;2022-09-13T08:30:40;21.33;;;10.63;;
19163;SDS011;9714;51.208;4.242;2022-09-13T08:33:08;21.27;;;10.18;;
19163;SDS011;9714;51.208;4.242;2022-09-13T08:35:36;19.75;;;11.48;;
19163;SDS011;9714;51.208;4.242;2022-09-13T08:38:03;21.23;;;10.45;;
19163;SDS011;9714;51.208;4.242;2022-09-13T08:40:32;19.92;;;11.52;;
19163;SDS011;9714;51.208;4.242;2022-09-13T08:43:08;18.38;;;11.30;;
19163;SDS011;9714;51.208;4.242;2022-09-13T08:45:49;18.02;;;11.40;;
19163;SDS011;9714;51.208;4.242;2022-09-13T08:48:21;24.52;;;11.93;;
19163;SDS011;9714;51.208;4.242;2022-09-13T08:50:57;26.75;;;13.85;;
19163;SDS011;9714;51.208;4.242;2022-09-13T08:53:29;21.10;;;13.75;;
19163;SDS011;9714;51.208;4.242;2022-09-13T08:56:00;23.13;;;13.02;;
19163;SDS011;9714;51.208;4.242;2022-09-13T08:58:35;20.88;;;13.88;;
19163;SDS011;9714;51.208;4.242;2022-09-13T09:01:13;22.33;;;13.73;;
19163;SDS011;9714;51.208;4.242;2022-09-13T09:03:45;24.90;;;14.43;;
19163;SDS011;9714;51.208;4.242;2022-09-13T09:06:18;23.35;;;13.32;;
19163;SDS011;9714;51.208;4.242;2022-09-13T09:08:47;26.45;;;14.32;;
19163;SDS011;9714;51.208;4.242;2022-09-13T09:11:20;26.75;;;14.35;;
19163;SDS011;9714;51.208;4.242;2022-09-13T09:13:56;23.25;;;15.77;;
19163;SDS011;9714;51.208;4.242;2022-09-13T09:16:31;31.52;;;17.00;;
19163;SDS011;9714;51.208;4.242;2022-09-13T09:19:04;29.20;;;16.60;;
19163;SDS011;9714;51.208;4.242;2022-09-13T09:21:38;30.73;;;18.48;;
19163;SDS011;9714;51.208;4.242;2022-09-13T09:24:08;32.40;;;20.02;;
19163;SDS011;9714;51.208;4.242;2022-09-13T09:26:41;31.50;;;18.67;;
19163;SDS011;9714;51.208;4.242;2022-09-13T09:29:13;26.40;;;17.02;;
19163;SDS011;9714;51.208;4.242;2022-09-13T09:31:44;34.05;;;16.83;;
19163;SDS011;9714;51.208;4.242;2022-09-13T09:34:21;29.80;;;14.80;;
19163;SDS011;9714;51.208;4.242;2022-09-13T09:36:58;26.27;;;15.30;;
19163;SDS011;9714;51.208;4.242;2022-09-13T09:39:30;27.00;;;15.02;;
19163;SDS011;9714;51.208;4.242;2022-09-13T09:42:03;22.23;;;13.75;;
19163;SDS011;9714;51.208;4.242;2022-09-13T09:44:34;21.88;;;12.57;;
19163;SDS011;9714;51.208;4.242;2022-09-13T09:47:06;21.98;;;11.82;;
19163;SDS011;9714;51.208;4.242;2022-09-13T09:49:39;25.50;;;14.85;;
19163;SDS011;9714;51.208;4.242;2022-09-13T09:52:30;23.95;;;13.77;;
19163;SDS011;9714;51.208;4.242;2022-09-13T09:55:08;27.40;;;12.90;;
19163;SDS011;9714;51.208;4.242;2022-09-13T10:00:22;23.83;;;15.00;;
19163;SDS011;9714;51.208;4.242;2022-09-13T10:02:51;25.83;;;15.25;;
19163;SDS011;9714;51.208;4.242;2022-09-13T10:05:20;25.42;;;14.10;;
19163;SDS011;9714;51.208;4.242;2022-09-13T10:07:56;22.63;;;12.73;;
19163;SDS011;9714;51.208;4.242;2022-09-13T10:10:30;22.48;;;13.60;;
19163;SDS011;9714;51.208;4.242;2022-09-13T10:13:02;26.05;;;13.90;;
19163;SDS011;9714;51.208;4.242;2022-09-13T10:15:33;24.75;;;15.27;;
19163;SDS011;9714;51.208;4.242;2022-09-13T10:20:53;22.50;;;13.57;;
19163;SDS011;9714;51.208;4.242;2022-09-13T10:23:26;23.08;;;14.20;;
19163;SDS011;9714;51.208;4.242;2022-09-13T10:25:58;22.98;;;14.70;;
19163;SDS011;9714;51.208;4.242;2022-09-13T10:28:31;29.23;;;15.20;;
19163;SDS011;9714;51.208;4.242;2022-09-13T10:31:03;21.55;;;14.85;;
19163;SDS011;9714;51.208;4.242;2022-09-13T10:33:34;24.25;;;12.73;;
19163;SDS011;9714;51.208;4.242;2022-09-13T10:36:06;19.98;;;13.55;;
19163;SDS011;9714;51.208;4.242;2022-09-13T10:38:38;25.00;;;14.45;;
19163;SDS011;9714;51.208;4.242;2022-09-13T10:41:06;22.98;;;15.10;;
19163;SDS011;9714;51.208;4.242;2022-09-13T10:43:35;27.17;;;17.20;;
19163;SDS011;9714;51.208;4.242;2022-09-13T10:46:04;22.55;;;15.88;;
19163;SDS011;9714;51.208;4.242;2022-09-13T10:48:45;29.08;;;15.88;;
19163;SDS011;9714;51.208;4.242;2022-09-13T10:51:20;23.98;;;16.73;;
19163;SDS011;9714;51.208;4.242;2022-09-13T10:54:07;26.33;;;16.83;;
19163;SDS011;9714;51.208;4.242;2022-09-13T10:56:46;25.00;;;16.52;;
19163;SDS011;9714;51.208;4.242;2022-09-13T10:59:16;28.85;;;16.60;;
19163;SDS011;9714;51.208;4.242;2022-09-13T11:01:50;26.98;;;15.70;;
19163;SDS011;9714;51.208;4.242;2022-09-13T11:04:40;25.33;;;14.52;;
19163;SDS011;9714;51.208;4.242;2022-09-13T11:10:15;22.17;;;12.10;;
19163;SDS011;9714;51.208;4.242;2022-09-13T11:12:51;23.33;;;11.65;;
19163;SDS011;9714;51.208;4.242;2022-09-13T11:15:28;19.48;;;9.85;;
19163;SDS011;9714;51.208;4.242;2022-09-13T11:18:22;18.67;;;8.63;;
19163;SDS011;9714;51.208;4.242;2022-09-13T11:21:09;14.68;;;7.50;;
19163;SDS011;9714;51.208;4.242;2022-09-13T11:23:52;13.52;;;7.60;;
19163;SDS011;9714;51.208;4.242;2022-09-13T11:26:45;17.08;;;7.43;;
19163;SDS011;9714;51.208;4.242;2022-09-13T11:29:35;13.88;;;7.57;;
19163;SDS011;9714;51.208;4.242;2022-09-13T11:32:14;13.00;;;6.88;;
19163;SDS011;9714;51.208;4.242;2022-09-13T11:35:03;13.25;;;6.97;;
19163;SDS011;9714;51.208;4.242;2022-09-13T11:37:43;14.95;;;7.40;;
19163;SDS011;9714;51.208;4.242;2022-09-13T11:40:24;12.98;;;7.05;;
19163;SDS011;9714;51.208;4.242;2022-09-13T11:43:03;15.27;;;6.68;;
19163;SDS011;9714;51.208;4.242;2022-09-13T11:45:42;14.32;;;6.80;;
19163;SDS011;9714;51.208;4.242;2022-09-13T11:51:17;16.63;;;6.22;;
19163;SDS011;9714;51.208;4.242;2022-09-13T11:53:56;12.05;;;5.70;;
19163;SDS011;9714;51.208;4.242;2022-09-13T11:56:34;13.95;;;6.43;;
19163;SDS011;9714;51.208;4.242;2022-09-13T11:59:13;12.98;;;5.97;;
19163;SDS011;9714;51.208;4.242;2022-09-13T12:01:45;14.93;;;6.05;;
19163;SDS011;9714;51.208;4.242;2022-09-13T12:04:18;30.88;;;7.35;;
19163;SDS011;9714;51.208;4.242;2022-09-13T12:06:51;22.25;;;6.10;;
19163;SDS011;9714;51.208;4.242;2022-09-13T12:09:24;14.40;;;5.40;;
19163;SDS011;9714;51.208;4.242;2022-09-13T12:11:56;12.80;;;6.50;;
19163;SDS011;9714;51.208;4.242;2022-09-13T12:14:29;13.60;;;5.60;;
19163;SDS011;9714;51.208;4.242;2022-09-13T12:17:06;14.30;;;5.60;;
19163;SDS011;9714;51.208;4.242;2022-09-13T12:19:45;11.60;;;6.20;;
19163;SDS011;9714;51.208;4.242;2022-09-13T12:22:20;12.98;;;5.88;;
19163;SDS011;9714;51.208;4.242;2022-09-13T12:24:50;13.27;;;6.18;;
19163;SDS011;9714;51.208;4.242;2022-09-13T12:27:21;13.05;;;5.90;;
19163;SDS011;9714;51.208;4.242;2022-09-13T12:29:52;13.30;;;5.32;;
19163;SDS011;9714;51.208;4.242;2022-09-13T12:32:21;12.85;;;5.18;;
19163;SDS011;9714;51.208;4.242;2022-09-13T12:34:50;13.00;;;5.97;;
19163;SDS011;9714;51.208;4.242;2022-09-13T12:37:37;14.18;;;6.28;;
19163;SDS011;9714;51.208;4.242;2022-09-13T12:40:25;13.02;;;5.90;;
19163;SDS011;9714;51.208;4.242;2022-09-13T12:43:15;14.98;;;5.90;;
19163;SDS011;9714;51.208;4.242;2022-09-13T12:46:02;16.33;;;6.35;;
19163;SDS011;9714;51.208;4.242;2022-09-13T12:51:41;14.65;;;5.82;;
19163;SDS011;9714;51.208;4.242;2022-09-13T12:54:42;13.85;;;6.40;;
19163;SDS011;9714;51.208;4.242;2022-09-13T12:57:33;14.23;;;6.45;;
19163;SDS011;9714;51.208;4.242;2022-09-13T13:00:11;15.05;;;6.55;;
19163;SDS011;9714;51.208;4.242;2022-09-13T13:02:59;12.90;;;6.65;;
19163;SDS011;9714;51.208;4.242;2022-09-13T13:05:37;16.70;;;6.28;;
19163;SDS011;9714;51.208;4.242;2022-09-13T13:08:16;17.13;;;7.85;;
19163;SDS011;9714;51.208;4.242;2022-09-13T13:10:59;16.90;;;8.02;;
19163;SDS011;9714;51.208;4.242;2022-09-13T13:13:32;13.68;;;7.75;;
19163;SDS011;9714;51.208;4.242;2022-09-13T13:18:50;21.52;;;7.80;;
19163;SDS011;9714;51.208;4.242;2022-09-13T13:21:24;18.52;;;8.75;;
19163;SDS011;9714;51.208;4.242;2022-09-13T13:33:23;19.65;;;9.35;;
19163;SDS011;9714;51.208;4.242;2022-09-13T13:35:53;19.98;;;9.73;;
19163;SDS011;9714;51.208;4.242;2022-09-13T13:41:17;19.02;;;10.00;;
19163;SDS011;9714;51.208;4.242;2022-09-13T13:53:45;21.88;;;10.82;;
19163;SDS011;9714;51.208;4.242;2022-09-13T13:56:20;17.40;;;9.50;;
19163;SDS011;9714;51.208;4.242;2022-09-13T13:59:04;17.17;;;8.38;;
19163;SDS011;9714;51.208;4.242;2022-09-13T14:01:38;14.75;;;8.07;;
19163;SDS011;9714;51.208;4.242;2022-09-13T14:07:20;14.07;;;8.48;;
19163;SDS011;9714;51.208;4.242;2022-09-13T14:10:01;18.98;;;9.13;;
19163;SDS011;9714;51.208;4.242;2022-09-13T14:12:43;19.10;;;9.07;;
19163;SDS011;9714;51.208;4.242;2022-09-13T14:15:28;18.30;;;8.23;;
19163;SDS011;9714;51.208;4.242;2022-09-13T14:18:20;14.55;;;8.63;;
19163;SDS011;9714;51.208;4.242;2022-09-13T14:21:19;14.73;;;9.25;;
19163;SDS011;9714;51.208;4.242;2022-09-13T14:23:50;15.70;;;9.90;;
19163;SDS011;9714;51.208;4.242;2022-09-13T14:26:33;18.45;;;10.10;;
19163;SDS011;9714;51.208;4.242;2022-09-13T14:29:04;15.68;;;9.30;;
19163;SDS011;9714;51.208;4.242;2022-09-13T14:31:32;22.90;;;10.32;;
19163;SDS011;9714;51.208;4.242;2022-09-13T14:34:00;17.00;;;9.38;;
19163;SDS011;9714;51.208;4.242;2022-09-13T14:36:27;18.00;;;9.73;;
19163;SDS011;9714;51.208;4.242;2022-09-13T14:38:56;18.33;;;9.70;;
19163;SDS011;9714;51.208;4.242;2022-09-13T14:41:29;18.17;;;10.23;;
19163;SDS011;9714;51.208;4.242;2022-09-13T14:44:14;15.60;;;9.25;;
19163;SDS011;9714;51.208;4.242;2022-09-13T14:46:43;14.98;;;9.55;;
19163;SDS011;9714;51.208;4.242;2022-09-13T14:49:16;17.90;;;9.82;;
19163;SDS011;9714;51.208;4.242;2022-09-13T14:51:49;16.48;;;10.27;;
19163;SDS011;9714;51.208;4.242;2022-09-13T14:54:25;21.38;;;10.32;;
19163;SDS011;9714;51.208;4.242;2022-09-13T14:57:02;18.98;;;9.25;;
19163;SDS011;9714;51.208;4.242;2022-09-13T14:59:35;16.67;;;10.23;;
19163;SDS011;9714;51.208;4.242;2022-09-13T15:02:13;16.52;;;8.88;;
19163;SDS011;9714;51.208;4.242;2022-09-13T15:04:47;20.52;;;9.80;;
19163;SDS011;9714;51.208;4.242;2022-09-13T15:07:26;14.32;;;9.02;;
19163;SDS011;9714;51.208;4.242;2022-09-13T15:09:56;17.17;;;9.15;;
19163;SDS011;9714;51.208;4.242;2022-09-13T15:12:30;14.30;;;9.07;;
19163;SDS011;9714;51.208;4.242;2022-09-13T15:17:59;14.95;;;9.63;;
19163;SDS011;9714;51.208;4.242;2022-09-13T15:20:43;17.10;;;9.05;;
19163;SDS011;9714;51.208;4.242;2022-09-13T15:23:14;14.02;;;8.45;;
19163;SDS011;9714;51.208;4.242;2022-09-13T15:25:46;16.00;;;8.52;;
19163;SDS011;9714;51.208;4.242;2022-09-13T15:28:19;13.75;;;8.23;;
19163;SDS011;9714;51.208;4.242;2022-09-13T15:30:51;15.07;;;8.75;;
19163;SDS011;9714;51.208;4.242;2022-09-13T15:33:22;17.88;;;8.15;;
19163;SDS011;9714;51.208;4.242;2022-09-13T15:38:54;14.98;;;8.02;;
19163;SDS011;9714;51.208;4.242;2022-09-13T15:41:30;19.45;;;8.45;;
19163;SDS011;9714;51.208;4.242;2022-09-13T15:43:59;14.55;;;7.93;;
19163;SDS011;9714;51.208;4.242;2022-09-13T15:46:28;15.05;;;8.40;;
19163;SDS011;9714;51.208;4.242;2022-09-13T15:48:57;19.83;;;9.50;;
19163;SDS011;9714;51.208;4.242;2022-09-13T15:51:25;13.63;;;7.88;;
19163;SDS011;9714;51.208;4.242;2022-09-13T15:53:52;12.10;;;7.93;;
19163;SDS011;9714;51.208;4.242;2022-09-13T15:56:20;12.20;;;8.18;;
19163;SDS011;9714;51.208;4.242;2022-09-13T15:58:52;17.75;;;8.10;;
19163;SDS011;9714;51.208;4.242;2022-09-13T16:01:20;13.52;;;7.22;;
19163;SDS011;9714;51.208;4.242;2022-09-13T16:03:49;16.42;;;7.85;;
19163;SDS011;9714;51.208;4.242;2022-09-13T16:06:16;11.95;;;6.45;;
19163;SDS011;9714;51.208;4.242;2022-09-13T16:08:43;12.88;;;6.72;;
19163;SDS011;9714;51.208;4.242;2022-09-13T16:11:10;12.00;;;6.05;;
19163;SDS011;9714;51.208;4.242;2022-09-13T16:13:37;15.43;;;6.03;;
19163;SDS011;9714;51.208;4.242;2022-09-13T16:16:05;15.00;;;6.78;;
19163;SDS011;9714;51.208;4.242;2022-09-13T16:18:32;15.35;;;6.30;;
19163;SDS011;9714;51.208;4.242;2022-09-13T16:21:01;14.70;;;6.20;;
19163;SDS011;9714;51.208;4.242;2022-09-13T16:23:28;12.30;;;5.47;;
19163;SDS011;9714;51.208;4.242;2022-09-13T16:25:55;10.77;;;4.85;;
19163;SDS011;9714;51.208;4.242;2022-09-13T16:28:25;15.18;;;4.53;;
19163;SDS011;9714;51.208;4.242;2022-09-13T16:30:55;14.52;;;4.32;;
19163;SDS011;9714;51.208;4.242;2022-09-13T16:33:22;13.27;;;4.13;;